Time;durP1;ratioP1;P1;durP2;ratioP2;P2;SDS_P1;SDS_P2;PMS_P1;PMS_P2;Temp;Humidity;BMP_temperature;BMP_pressure;BME280_temperature;BME280_humidity;BME280_pressure;Samples;Min_cycle;Max_cycle;Signal;HPM_P1;HPM_P2
2023/08/29 00:01:12;;;;;;;269.67;254.70;;;;;;;;;;4997655;28;20314;-79
2023/08/29 00:03:39;;;;;;;315.45;295.70;;;;;;;;;;4991797;28;20228;-79
2023/08/29 00:06:06;;;;;;;280.75;266.08;;;;;;;;;;4976536;28;20703;-79
2023/08/29 00:08:33;;;;;;;277.75;262.25;;;;;;;;;;4989515;28;20244;-77
2023/08/29 00:11:02;;;;;;;215.98;203.85;;;;;;;;;;4992379;28;20246;-79
2023/08/29 00:13:29;;;;;;;297.95;282.50;;;;;;;;;;4995962;28;20231;-77
2023/08/29 00:15:56;;;;;;;305.33;289.65;;;;;;;;;;4991325;28;20258;-79
2023/08/29 00:18:23;;;;;;;296.92;280.40;;;;;;;;;;4994764;28;20244;-77
2023/08/29 00:20:49;;;;;;;200.07;184.07;;;;;;;;;;4983907;28;20326;-78
2023/08/29 00:23:16;;;;;;;200.93;189.20;;;;;;;;;;4989639;28;20226;-79
2023/08/29 00:25:43;;;;;;;233.18;216.80;;;;;;;;;;4983299;28;20243;-78
2023/08/29 00:28:11;;;;;;;234.43;217.10;;;;;;;;;;4994343;28;20239;-79
2023/08/29 00:30:38;;;;;;;265.30;248.45;;;;;;;;;;4991433;28;20239;-77
2023/08/29 00:33:10;;;;;;;309.45;292.75;;;;;;;;;;4994609;28;20281;-79
2023/08/29 00:35:36;;;;;;;343.63;323.08;;;;;;;;;;4993528;28;20235;-79
2023/08/29 00:38:03;;;;;;;281.48;266.25;;;;;;;;;;4995444;28;20305;-78
2023/08/29 00:40:31;;;;;;;284.45;268.38;;;;;;;;;;4975131;28;20248;-78
2023/08/29 00:42:58;;;;;;;341.90;324.75;;;;;;;;;;4985576;28;20295;-79
2023/08/29 00:45:25;;;;;;;318.85;302.88;;;;;;;;;;5003033;28;20231;-79
2023/08/29 00:47:52;;;;;;;239.50;226.00;;;;;;;;;;4992123;28;20239;-78
2023/08/29 00:50:19;;;;;;;271.83;257.67;;;;;;;;;;4996427;28;20246;-78
2023/08/29 00:52:46;;;;;;;152.00;138.27;;;;;;;;;;4975779;28;20235;-78
2023/08/29 00:55:16;;;;;;;134.63;126.53;;;;;;;;;;4985182;28;20743;-78
2023/08/29 00:57:43;;;;;;;143.50;132.13;;;;;;;;;;4975840;28;20235;-79
2023/08/29 01:00:11;;;;;;;175.32;164.68;;;;;;;;;;4993162;28;20227;-80
2023/08/29 01:02:38;;;;;;;301.65;282.95;;;;;;;;;;4982529;28;20231;-77
2023/08/29 01:05:04;;;;;;;337.33;320.08;;;;;;;;;;4978977;28;20371;-79
2023/08/29 01:07:31;;;;;;;276.83;262.58;;;;;;;;;;4997223;28;20231;-79
2023/08/29 01:09:58;;;;;;;273.95;259.85;;;;;;;;;;4992338;28;20235;-78
2023/08/29 01:12:35;;;;;;;299.75;283.13;;;;;;;;;;4990720;28;20288;-79
2023/08/29 01:15:04;;;;;;;293.33;276.95;;;;;;;;;;4989708;28;20314;-79
2023/08/29 01:17:34;;;;;;;378.63;357.50;;;;;;;;;;4992921;28;20285;-79
2023/08/29 01:20:02;;;;;;;433.45;410.83;;;;;;;;;;4966005;28;20295;-78
2023/08/29 01:22:41;;;;;;;346.23;326.33;;;;;;;;;;4997183;28;20244;-79
2023/08/29 01:25:26;;;;;;;342.95;324.63;;;;;;;;;;4997165;28;20234;-79
2023/08/29 01:27:53;;;;;;;384.38;363.73;;;;;;;;;;4995875;28;20263;-79
2023/08/29 01:30:21;;;;;;;290.15;268.35;;;;;;;;;;4994141;28;20235;-78
2023/08/29 01:32:48;;;;;;;271.02;251.40;;;;;;;;;;4986955;28;20243;-78
2023/08/29 01:35:15;;;;;;;258.42;243.10;;;;;;;;;;4994931;28;20281;-79
2023/08/29 01:37:41;;;;;;;269.48;251.60;;;;;;;;;;4996715;28;20294;-79
2023/08/29 01:40:09;;;;;;;315.50;299.77;;;;;;;;;;4980453;28;20250;-78
2023/08/29 01:42:36;;;;;;;255.68;240.63;;;;;;;;;;4989861;28;20238;-79
2023/08/29 01:45:04;;;;;;;273.45;258.20;;;;;;;;;;4997052;28;20238;-78
2023/08/29 01:47:31;;;;;;;212.88;200.70;;;;;;;;;;5002041;28;20269;-78
2023/08/29 01:49:59;;;;;;;272.02;256.73;;;;;;;;;;4997606;28;20315;-78
2023/08/29 01:52:26;;;;;;;328.80;311.52;;;;;;;;;;5001007;28;20599;-78
2023/08/29 01:54:52;;;;;;;258.50;243.82;;;;;;;;;;4980081;28;20250;-79
2023/08/29 01:57:19;;;;;;;229.05;215.23;;;;;;;;;;4997385;28;20228;-78
2023/08/29 01:59:46;;;;;;;100.97;85.95;;;;;;;;;;4969306;28;20228;-79
2023/08/29 02:02:15;;;;;;;79.32;72.28;;;;;;;;;;4993445;28;20220;-79
2023/08/29 02:04:42;;;;;;;139.10;126.53;;;;;;;;;;4988543;28;20232;-78
2023/08/29 02:07:08;;;;;;;169.88;159.70;;;;;;;;;;5002054;28;20270;-80
2023/08/29 02:09:35;;;;;;;221.38;207.43;;;;;;;;;;4987269;28;20255;-78
2023/08/29 02:12:02;;;;;;;165.10;154.35;;;;;;;;;;4998855;28;20239;-80
2023/08/29 02:14:28;;;;;;;195.13;184.43;;;;;;;;;;4999737;28;20228;-79
2023/08/29 02:16:55;;;;;;;200.80;188.70;;;;;;;;;;4994473;28;20242;-78
2023/08/29 02:19:22;;;;;;;169.45;157.45;;;;;;;;;;4998824;28;20254;-79
2023/08/29 02:21:48;;;;;;;176.27;161.00;;;;;;;;;;4989022;28;20236;-79
2023/08/29 02:24:15;;;;;;;137.85;128.68;;;;;;;;;;4992689;28;20267;-79
2023/08/29 02:26:41;;;;;;;151.63;138.48;;;;;;;;;;4999056;28;20242;-80
2023/08/29 02:29:08;;;;;;;114.30;105.28;;;;;;;;;;5000487;28;20231;-80
2023/08/29 02:31:35;;;;;;;125.95;115.55;;;;;;;;;;4991255;28;20236;-79
2023/08/29 02:34:02;;;;;;;114.65;106.32;;;;;;;;;;5001539;28;20240;-80
2023/08/29 02:36:29;;;;;;;136.50;126.47;;;;;;;;;;4994154;28;20292;-80
2023/08/29 02:38:55;;;;;;;130.15;121.32;;;;;;;;;;4977538;28;20239;-81
2023/08/29 02:41:22;;;;;;;154.88;145.15;;;;;;;;;;5000937;28;20687;-80
2023/08/29 02:43:48;;;;;;;153.93;139.65;;;;;;;;;;4993437;28;20248;-81
2023/08/29 02:46:15;;;;;;;161.40;151.85;;;;;;;;;;5005967;28;20231;-81
2023/08/29 02:48:42;;;;;;;133.35;105.30;;;;;;;;;;4995589;28;20232;-81
2023/08/29 02:51:08;;;;;;;98.47;91.07;;;;;;;;;;4997158;28;20286;-81
2023/08/29 02:53:35;;;;;;;103.88;95.68;;;;;;;;;;4991799;28;20228;-80
2023/08/29 02:56:01;;;;;;;104.90;97.72;;;;;;;;;;4995771;28;20228;-80
2023/08/29 02:58:28;;;;;;;135.85;125.90;;;;;;;;;;4996082;28;20228;-78
2023/08/29 03:00:59;;;;;;;136.27;127.60;;;;;;;;;;4995270;28;20322;-79
2023/08/29 03:03:26;;;;;;;95.47;88.97;;;;;;;;;;4973057;28;20232;-80
2023/08/29 03:05:57;;;;;;;146.82;137.88;;;;;;;;;;4999083;28;20278;-79
2023/08/29 03:08:23;;;;;;;106.55;99.45;;;;;;;;;;5003630;28;20239;-80
2023/08/29 03:10:50;;;;;;;105.50;93.90;;;;;;;;;;4981201;28;20243;-79
2023/08/29 03:13:20;;;;;;;142.77;134.20;;;;;;;;;;5001397;28;20226;-77
2023/08/29 03:15:47;;;;;;;123.25;109.25;;;;;;;;;;4968452;28;20234;-79
2023/08/29 03:18:13;;;;;;;116.05;106.95;;;;;;;;;;4976301;28;20242;-80
2023/08/29 03:20:40;;;;;;;92.32;78.20;;;;;;;;;;4993079;28;20235;-79
2023/08/29 03:23:07;;;;;;;88.38;82.18;;;;;;;;;;4997728;28;20226;-80
2023/08/29 03:25:33;;;;;;;96.78;89.95;;;;;;;;;;4992847;28;20231;-79
2023/08/29 03:28:00;;;;;;;104.15;96.80;;;;;;;;;;4994148;28;20235;-79
2023/08/29 03:30:27;;;;;;;113.35;105.15;;;;;;;;;;4997754;28;20235;-79
2023/08/29 03:32:53;;;;;;;97.25;90.10;;;;;;;;;;4999369;28;20239;-79
2023/08/29 03:35:20;;;;;;;125.40;117.50;;;;;;;;;;4984042;28;20338;-80
2023/08/29 03:37:47;;;;;;;118.10;101.53;;;;;;;;;;4995370;28;20228;-79
2023/08/29 03:40:13;;;;;;;117.35;108.93;;;;;;;;;;4994695;28;20290;-80
2023/08/29 03:42:40;;;;;;;120.55;102.25;;;;;;;;;;4995436;28;20231;-78
2023/08/29 03:45:07;;;;;;;81.90;75.72;;;;;;;;;;4985003;28;20235;-80
2023/08/29 03:47:34;;;;;;;117.70;109.80;;;;;;;;;;4969777;28;20248;-80
2023/08/29 03:50:00;;;;;;;123.85;116.45;;;;;;;;;;4995715;28;20238;-80
2023/08/29 03:52:27;;;;;;;147.60;138.20;;;;;;;;;;4996903;28;20277;-80
2023/08/29 03:54:54;;;;;;;152.23;143.13;;;;;;;;;;4975471;28;20252;-80
2023/08/29 03:57:24;;;;;;;113.78;105.40;;;;;;;;;;4996876;28;20236;-79
2023/08/29 03:59:50;;;;;;;98.10;87.60;;;;;;;;;;4998063;28;20242;-80
2023/08/29 04:02:18;;;;;;;87.60;80.03;;;;;;;;;;4983018;28;20224;-79
2023/08/29 04:04:45;;;;;;;98.72;88.65;;;;;;;;;;4995199;28;20236;-81
2023/08/29 04:07:11;;;;;;;99.70;91.88;;;;;;;;;;4995654;28;20223;-80
2023/08/29 04:09:39;;;;;;;169.80;155.50;;;;;;;;;;4987444;28;20251;-80
2023/08/29 04:12:10;;;;;;;148.80;139.95;;;;;;;;;;5003534;28;20230;-79
2023/08/29 04:14:37;;;;;;;141.63;129.70;;;;;;;;;;4995369;28;20232;-79
2023/08/29 04:17:04;;;;;;;159.77;150.60;;;;;;;;;;5005983;28;20573;-78
2023/08/29 04:19:30;;;;;;;288.30;274.30;;;;;;;;;;4999697;28;20610;-80
2023/08/29 04:21:57;;;;;;;351.05;328.73;;;;;;;;;;4991676;28;20234;-79
2023/08/29 04:24:23;;;;;;;391.00;371.58;;;;;;;;;;4997594;28;20232;-80
2023/08/29 04:26:50;;;;;;;354.38;333.58;;;;;;;;;;4995972;28;20737;-80
2023/08/29 04:29:16;;;;;;;325.15;308.77;;;;;;;;;;4991848;28;20235;-79
2023/08/29 04:31:43;;;;;;;335.63;315.70;;;;;;;;;;5000482;28;20231;-80
2023/08/29 04:34:10;;;;;;;280.80;265.48;;;;;;;;;;4997665;28;20257;-79
2023/08/29 04:36:37;;;;;;;332.15;313.80;;;;;;;;;;4994788;28;20240;-80
2023/08/29 04:39:03;;;;;;;376.90;358.27;;;;;;;;;;4995589;28;20238;-80
2023/08/29 04:41:30;;;;;;;421.85;399.15;;;;;;;;;;4996959;28;20239;-79
2023/08/29 04:43:56;;;;;;;512.17;485.67;;;;;;;;;;4996801;28;20236;-81
2023/08/29 04:46:23;;;;;;;484.00;460.13;;;;;;;;;;4998619;28;20255;-80
2023/08/29 04:48:49;;;;;;;396.92;372.00;;;;;;;;;;4990615;28;20240;-81
2023/08/29 04:51:16;;;;;;;256.95;242.60;;;;;;;;;;4994396;28;20224;-84
2023/08/29 04:53:43;;;;;;;243.45;223.80;;;;;;;;;;4991455;28;20231;-81
2023/08/29 04:56:10;;;;;;;204.45;192.65;;;;;;;;;;4980599;28;20228;-81
2023/08/29 04:58:37;;;;;;;235.93;221.23;;;;;;;;;;4995743;28;20231;-80
2023/08/29 05:01:03;;;;;;;247.02;233.43;;;;;;;;;;4974689;28;20639;-80
2023/08/29 05:03:30;;;;;;;279.80;265.48;;;;;;;;;;4977311;28;20219;-80
2023/08/29 05:05:57;;;;;;;322.90;306.50;;;;;;;;;;4992466;28;20266;-81
2023/08/29 05:08:24;;;;;;;434.55;410.42;;;;;;;;;;4991810;28;20235;-80
2023/08/29 05:10:50;;;;;;;465.40;437.88;;;;;;;;;;4987941;28;20243;-80
2023/08/29 05:13:17;;;;;;;491.17;465.08;;;;;;;;;;4959994;28;20235;-80
2023/08/29 05:15:44;;;;;;;456.52;429.48;;;;;;;;;;4984977;28;20241;-82
2023/08/29 05:18:11;;;;;;;418.10;396.27;;;;;;;;;;4997249;28;20232;-79
2023/08/29 05:20:37;;;;;;;422.30;398.88;;;;;;;;;;4990339;28;20639;-80
2023/08/29 05:23:04;;;;;;;399.13;379.10;;;;;;;;;;5000401;28;20281;-81
2023/08/29 05:25:31;;;;;;;335.27;316.48;;;;;;;;;;4997657;28;20289;-81
2023/08/29 05:27:58;;;;;;;336.25;318.63;;;;;;;;;;4997325;28;20239;-82
2023/08/29 05:30:24;;;;;;;508.67;481.63;;;;;;;;;;5000779;28;20244;-81
2023/08/29 05:32:52;;;;;;;404.65;380.45;;;;;;;;;;4994484;28;20253;-80
2023/08/29 05:35:19;;;;;;;382.90;362.63;;;;;;;;;;5000456;28;20247;-80
2023/08/29 05:37:46;;;;;;;397.42;372.55;;;;;;;;;;4994435;28;20242;-80
2023/08/29 05:40:13;;;;;;;546.72;513.80;;;;;;;;;;4994570;28;20572;-78
2023/08/29 05:42:39;;;;;;;484.20;454.40;;;;;;;;;;4993417;28;20282;-79
2023/08/29 05:45:06;;;;;;;557.67;525.72;;;;;;;;;;4994065;28;20240;-78
2023/08/29 05:47:33;;;;;;;563.80;531.53;;;;;;;;;;5001849;28;20239;-79
2023/08/29 05:49:59;;;;;;;572.15;540.28;;;;;;;;;;4999032;28;20305;-78
2023/08/29 05:52:26;;;;;;;597.08;562.70;;;;;;;;;;4984703;28;20231;-80
2023/08/29 05:54:53;;;;;;;595.90;560.20;;;;;;;;;;4996156;28;20248;-80
2023/08/29 05:57:20;;;;;;;579.45;545.60;;;;;;;;;;4996658;28;20243;-77
2023/08/29 05:59:46;;;;;;;511.08;477.83;;;;;;;;;;4990628;28;20235;-80
2023/08/29 06:02:13;;;;;;;603.90;569.25;;;;;;;;;;4993833;28;20228;-79
2023/08/29 06:04:39;;;;;;;551.50;517.10;;;;;;;;;;4998402;28;20220;-78
2023/08/29 06:07:07;;;;;;;587.15;554.55;;;;;;;;;;5002123;28;20235;-79
2023/08/29 06:09:33;;;;;;;579.33;543.50;;;;;;;;;;4999132;28;20816;-80
2023/08/29 06:12:00;;;;;;;443.52;421.10;;;;;;;;;;4999404;28;20238;-79
2023/08/29 06:14:27;;;;;;;505.65;479.92;;;;;;;;;;4997066;28;20652;-79
2023/08/29 06:16:54;;;;;;;461.17;435.80;;;;;;;;;;4985824;28;20311;-79
2023/08/29 06:19:21;;;;;;;385.65;365.80;;;;;;;;;;4977483;28;20619;-81
2023/08/29 06:21:47;;;;;;;195.25;177.43;;;;;;;;;;4989557;28;20227;-81
2023/08/29 06:24:14;;;;;;;161.70;151.30;;;;;;;;;;4996438;28;20286;-80
2023/08/29 06:26:41;;;;;;;246.05;230.25;;;;;;;;;;4990869;28;20240;-80
2023/08/29 06:29:08;;;;;;;314.50;297.05;;;;;;;;;;4996329;28;20329;-80
2023/08/29 06:31:34;;;;;;;420.35;397.90;;;;;;;;;;4982755;28;20231;-80
2023/08/29 06:34:01;;;;;;;330.95;314.10;;;;;;;;;;4994943;28;20719;-81
2023/08/29 06:36:28;;;;;;;413.33;392.27;;;;;;;;;;5003554;28;20247;-80
2023/08/29 06:38:54;;;;;;;480.58;454.38;;;;;;;;;;4998733;28;20231;-79
2023/08/29 06:41:21;;;;;;;511.35;483.77;;;;;;;;;;4985934;28;20242;-80
2023/08/29 06:43:48;;;;;;;424.30;397.77;;;;;;;;;;4997666;28;20232;-80
2023/08/29 06:46:14;;;;;;;424.30;396.38;;;;;;;;;;5004572;28;20219;-80
2023/08/29 06:48:41;;;;;;;353.58;329.85;;;;;;;;;;4997371;28;20298;-78
2023/08/29 06:51:09;;;;;;;498.40;471.00;;;;;;;;;;4997841;28;20240;-80
2023/08/29 06:53:35;;;;;;;462.05;437.05;;;;;;;;;;4998489;28;20238;-79
2023/08/29 06:56:02;;;;;;;477.35;451.55;;;;;;;;;;5001488;28;20245;-79
2023/08/29 06:58:29;;;;;;;500.85;473.00;;;;;;;;;;4964012;28;20285;-80
2023/08/29 07:00:55;;;;;;;528.00;498.73;;;;;;;;;;4993156;28;20238;-80
2023/08/29 07:03:22;;;;;;;544.85;515.78;;;;;;;;;;5009819;28;20234;-81
2023/08/29 07:05:49;;;;;;;517.17;486.30;;;;;;;;;;4991791;28;20232;-80
2023/08/29 07:08:16;;;;;;;521.97;491.55;;;;;;;;;;5000214;28;20230;-80
2023/08/29 07:10:42;;;;;;;552.75;519.90;;;;;;;;;;4998434;28;20235;-81
2023/08/29 07:13:09;;;;;;;551.35;522.40;;;;;;;;;;5001566;28;20618;-80
2023/08/29 07:15:35;;;;;;;568.33;537.05;;;;;;;;;;4999060;28;20252;-80
2023/08/29 07:18:05;;;;;;;578.13;546.00;;;;;;;;;;5000648;28;20231;-79
2023/08/29 07:20:32;;;;;;;561.35;531.22;;;;;;;;;;4983980;28;20235;-81
2023/08/29 07:22:59;;;;;;;541.78;512.03;;;;;;;;;;4994210;28;20238;-80
2023/08/29 07:25:55;;;;;;;536.67;507.83;;;;;;;;;;5001112;28;20236;-80
2023/08/29 07:28:23;;;;;;;506.20;478.08;;;;;;;;;;4980330;28;20238;-78
2023/08/29 07:30:52;;;;;;;514.90;484.52;;;;;;;;;;4992439;28;21613;-79
2023/08/29 07:33:19;;;;;;;544.97;516.63;;;;;;;;;;4996698;28;20251;-79
2023/08/29 07:35:47;;;;;;;514.72;483.75;;;;;;;;;;5006301;28;20255;-80
2023/08/29 07:38:14;;;;;;;484.58;458.45;;;;;;;;;;4994911;28;20236;-79
2023/08/29 07:40:40;;;;;;;510.15;479.95;;;;;;;;;;4999499;28;20235;-81
2023/08/29 07:43:08;;;;;;;498.58;472.48;;;;;;;;;;5003416;28;20223;-81
2023/08/29 07:45:34;;;;;;;472.92;447.05;;;;;;;;;;4999329;28;20239;-79
2023/08/29 07:48:01;;;;;;;469.17;445.02;;;;;;;;;;5007284;28;20235;-79
2023/08/29 07:50:28;;;;;;;483.08;458.90;;;;;;;;;;5002050;28;20232;-80
2023/08/29 07:52:55;;;;;;;444.63;419.52;;;;;;;;;;4993738;28;20236;-80
2023/08/29 07:55:21;;;;;;;486.50;460.98;;;;;;;;;;4981581;28;20270;-81
2023/08/29 07:57:48;;;;;;;472.95;443.42;;;;;;;;;;4981601;28;20279;-80
2023/08/29 08:00:15;;;;;;;541.95;514.45;;;;;;;;;;4985077;28;20314;-80
2023/08/29 08:02:42;;;;;;;477.20;448.77;;;;;;;;;;4985950;28;20547;-79
2023/08/29 08:05:10;;;;;;;430.67;403.90;;;;;;;;;;4983485;28;20310;-79
2023/08/29 08:07:40;;;;;;;499.20;469.58;;;;;;;;;;4993872;28;20271;-79
2023/08/29 08:10:07;;;;;;;481.25;454.13;;;;;;;;;;4984235;28;20232;-79
2023/08/29 08:12:35;;;;;;;516.08;487.98;;;;;;;;;;4977874;28;20721;-80
2023/08/29 08:15:04;;;;;;;486.83;461.48;;;;;;;;;;4998647;28;20240;-80
2023/08/29 08:17:31;;;;;;;405.25;382.77;;;;;;;;;;4982644;28;20223;-80
2023/08/29 08:19:58;;;;;;;497.75;470.77;;;;;;;;;;4994592;28;20692;-79
2023/08/29 08:22:24;;;;;;;445.17;420.58;;;;;;;;;;4999678;28;20238;-79
2023/08/29 08:24:51;;;;;;;367.15;343.77;;;;;;;;;;4982760;28;20235;-80
2023/08/29 08:27:19;;;;;;;424.15;399.23;;;;;;;;;;4979760;28;20246;-80
2023/08/29 08:29:46;;;;;;;502.20;470.95;;;;;;;;;;4994157;28;20236;-80
2023/08/29 08:32:12;;;;;;;563.75;533.58;;;;;;;;;;5006042;28;20298;-79
2023/08/29 08:34:39;;;;;;;414.17;384.33;;;;;;;;;;4975315;28;20224;-81
2023/08/29 08:37:05;;;;;;;683.67;646.17;;;;;;;;;;4996894;28;20223;-81
2023/08/29 08:39:32;;;;;;;618.83;582.08;;;;;;;;;;4995477;28;20250;-79
2023/08/29 08:42:02;;;;;;;528.92;499.70;;;;;;;;;;4993095;28;20227;-81
2023/08/29 08:44:30;;;;;;;646.15;610.17;;;;;;;;;;5001766;28;20235;-79
2023/08/29 08:46:57;;;;;;;585.15;553.85;;;;;;;;;;4997511;28;20231;-80
2023/08/29 08:49:25;;;;;;;425.25;401.48;;;;;;;;;;4995579;28;20244;-81
2023/08/29 08:51:52;;;;;;;329.73;307.33;;;;;;;;;;4993490;28;20254;-79
2023/08/29 08:54:19;;;;;;;351.63;333.70;;;;;;;;;;5001154;28;20227;-81
2023/08/29 08:56:46;;;;;;;275.73;255.57;;;;;;;;;;4979926;28;20232;-81
2023/08/29 08:59:13;;;;;;;390.48;370.60;;;;;;;;;;5002248;28;20259;-80
2023/08/29 09:01:39;;;;;;;292.80;271.25;;;;;;;;;;4999418;28;20231;-81
2023/08/29 09:04:07;;;;;;;170.43;158.93;;;;;;;;;;5003887;28;20232;-82
2023/08/29 09:06:34;;;;;;;508.45;480.20;;;;;;;;;;5005768;28;20289;-80
2023/08/29 09:09:17;;;;;;;605.28;571.03;;;;;;;;;;5003431;28;20232;-80
2023/08/29 09:11:43;;;;;;;641.83;603.63;;;;;;;;;;4996099;28;20251;-81
2023/08/29 09:14:10;;;;;;;697.35;659.10;;;;;;;;;;5002520;28;20223;-81
2023/08/29 09:16:39;;;;;;;649.15;610.55;;;;;;;;;;4980953;28;20223;-81
2023/08/29 09:19:06;;;;;;;482.75;457.65;;;;;;;;;;4985289;28;20227;-81
2023/08/29 09:21:36;;;;;;;593.08;560.95;;;;;;;;;;4985170;28;20231;-79
2023/08/29 09:24:04;;;;;;;602.10;569.88;;;;;;;;;;5003393;28;20300;-81
2023/08/29 09:26:32;;;;;;;610.35;578.35;;;;;;;;;;4987053;28;20233;-79
2023/08/29 09:28:59;;;;;;;578.78;548.40;;;;;;;;;;4997561;28;20231;-80
2023/08/29 09:31:25;;;;;;;663.15;627.58;;;;;;;;;;4989167;28;20231;-81
2023/08/29 09:33:52;;;;;;;592.17;558.17;;;;;;;;;;4997588;28;20243;-80
2023/08/29 09:36:19;;;;;;;625.15;591.78;;;;;;;;;;4985408;28;20235;-81
2023/08/29 09:38:46;;;;;;;503.88;472.63;;;;;;;;;;4996767;28;20232;-81
2023/08/29 09:41:15;;;;;;;553.00;523.30;;;;;;;;;;4961308;28;20228;-82
2023/08/29 09:43:46;;;;;;;506.67;473.50;;;;;;;;;;4998845;28;20231;-79
2023/08/29 09:46:13;;;;;;;699.65;662.03;;;;;;;;;;4999743;28;20242;-81
2023/08/29 09:48:55;;;;;;;436.02;404.52;;;;;;;;;;4979152;28;20222;-82
2023/08/29 09:51:26;;;;;;;690.50;653.80;;;;;;;;;;5007173;28;20227;-80
2023/08/29 09:53:56;;;;;;;744.70;703.50;;;;;;;;;;4991457;28;21522;-81
2023/08/29 09:56:24;;;;;;;563.58;531.78;;;;;;;;;;5004811;28;20219;-81
2023/08/29 09:58:51;;;;;;;454.83;427.95;;;;;;;;;;4992574;28;20236;-81
2023/08/29 10:01:18;;;;;;;467.48;441.65;;;;;;;;;;5000625;28;20321;-82
2023/08/29 10:03:46;;;;;;;442.70;415.40;;;;;;;;;;4994278;28;20262;-81
2023/08/29 10:06:15;;;;;;;549.42;519.78;;;;;;;;;;5000438;28;20231;-82
2023/08/29 10:08:44;;;;;;;427.83;400.98;;;;;;;;;;4999536;28;20227;-82
2023/08/29 10:11:10;;;;;;;472.90;446.52;;;;;;;;;;5001292;28;20234;-81
2023/08/29 10:13:39;;;;;;;297.20;278.08;;;;;;;;;;4810908;28;20237;-79
2023/08/29 10:16:06;;;;;;;294.13;276.83;;;;;;;;;;4978428;28;20338;-79
2023/08/29 10:18:33;;;;;;;315.90;296.92;;;;;;;;;;5001499;28;20295;-79
2023/08/29 10:21:01;;;;;;;238.40;221.65;;;;;;;;;;4965881;28;20232;-80
2023/08/29 10:23:30;;;;;;;289.13;272.83;;;;;;;;;;4999453;28;20280;-80
2023/08/29 10:25:58;;;;;;;299.17;280.75;;;;;;;;;;4990609;28;20223;-81
2023/08/29 10:28:25;;;;;;;326.45;306.10;;;;;;;;;;4998294;28;20230;-79
2023/08/29 10:30:53;;;;;;;334.00;311.25;;;;;;;;;;4980597;28;20243;-81
2023/08/29 10:33:20;;;;;;;462.33;435.33;;;;;;;;;;4978581;28;20236;-80
2023/08/29 10:35:47;;;;;;;683.33;640.17;;;;;;;;;;4995953;28;20267;-80
2023/08/29 10:38:15;;;;;;;691.13;650.90;;;;;;;;;;4981055;28;20608;-80
2023/08/29 10:40:42;;;;;;;762.08;715.65;;;;;;;;;;4988525;28;20231;-80
2023/08/29 10:43:19;;;;;;;751.65;707.47;;;;;;;;;;4993986;28;20238;-80
2023/08/29 10:45:46;;;;;;;692.97;649.55;;;;;;;;;;4990096;28;20238;-80
2023/08/29 10:48:17;;;;;;;702.90;661.40;;;;;;;;;;4997454;28;20231;-83
2023/08/29 10:50:46;;;;;;;247.13;223.60;;;;;;;;;;4986301;28;20233;-82
2023/08/29 10:53:19;;;;;;;82.85;75.38;;;;;;;;;;4999293;28;20234;-82
2023/08/29 10:56:00;;;;;;;144.70;128.05;;;;;;;;;;4970164;28;20239;-82
2023/08/29 10:58:32;;;;;;;749.13;703.92;;;;;;;;;;4976678;28;20231;-82
2023/08/29 11:00:58;;;;;;;793.63;745.25;;;;;;;;;;4826705;28;20262;-81
2023/08/29 11:03:52;;;;;;;794.25;747.63;;;;;;;;;;4918284;28;20303;-82
2023/08/29 11:06:19;;;;;;;818.47;771.25;;;;;;;;;;5006664;28;20274;-83
2023/08/29 11:08:46;;;;;;;742.63;695.38;;;;;;;;;;4990307;28;20245;-83
2023/08/29 11:11:22;;;;;;;711.70;670.35;;;;;;;;;;5003328;28;20235;-82
2023/08/29 11:13:58;;;;;;;620.78;581.17;;;;;;;;;;4999217;28;20266;-82
2023/08/29 11:16:25;;;;;;;693.33;652.30;;;;;;;;;;5005138;28;20620;-81
2023/08/29 11:19:20;;;;;;;659.63;616.25;;;;;;;;;;5002280;28;20259;-82
2023/08/29 11:21:48;;;;;;;833.70;781.70;;;;;;;;;;4996492;28;20737;-82
2023/08/29 11:24:15;;;;;;;839.22;789.58;;;;;;;;;;5006553;28;20234;-81
2023/08/29 11:26:43;;;;;;;691.65;646.25;;;;;;;;;;4993438;28;20243;-80
2023/08/29 11:29:10;;;;;;;724.40;680.42;;;;;;;;;;4999983;28;20239;-80
2023/08/29 11:31:39;;;;;;;806.28;755.03;;;;;;;;;;4961310;28;20235;-80
2023/08/29 11:34:17;;;;;;;828.53;778.25;;;;;;;;;;4998767;28;20231;-79
2023/08/29 11:36:48;;;;;;;696.85;651.05;;;;;;;;;;4994247;28;20227;-81
2023/08/29 11:39:17;;;;;;;700.72;658.13;;;;;;;;;;5005253;28;20242;-81
2023/08/29 11:41:44;;;;;;;808.13;756.40;;;;;;;;;;5002903;28;20237;-80
2023/08/29 11:44:34;;;;;;;1007.83;947.63;;;;;;;;;;4970939;28;20254;-80
2023/08/29 11:47:21;;;;;;;1009.85;948.42;;;;;;;;;;4993739;28;20250;-80
2023/08/29 11:49:54;;;;;;;969.65;909.30;;;;;;;;;;4986732;28;20263;-83
2023/08/29 11:52:21;;;;;;;959.17;902.20;;;;;;;;;;4980037;28;20285;-82
2023/08/29 11:54:52;;;;;;;536.22;498.48;;;;;;;;;;4987462;28;20290;-82
2023/08/29 11:57:19;;;;;;;884.60;832.45;;;;;;;;;;4994380;28;20318;-82
2023/08/29 11:59:47;;;;;;;787.20;735.38;;;;;;;;;;4977013;28;20227;-81
2023/08/29 12:02:14;;;;;;;881.10;829.13;;;;;;;;;;5005060;28;20237;-82
2023/08/29 12:04:46;;;;;;;831.67;778.13;;;;;;;;;;5001066;28;20231;-81
2023/08/29 12:07:13;;;;;;;956.60;900.20;;;;;;;;;;5001835;28;20230;-84
2023/08/29 12:09:42;;;;;;;778.83;728.75;;;;;;;;;;4991611;28;20237;-80
2023/08/29 12:12:26;;;;;;;969.47;911.67;;;;;;;;;;5001354;28;20237;-82
2023/08/29 12:14:53;;;;;;;971.35;911.15;;;;;;;;;;4994169;28;20653;-81
2023/08/29 12:17:20;;;;;;;1020.42;958.40;;;;;;;;;;4986062;28;20234;-81
2023/08/29 12:19:47;;;;;;;389.25;360.67;;;;;;;;;;4997449;28;20238;-81
2023/08/29 12:22:21;;;;;;;990.65;931.15;;;;;;;;;;4998234;28;20235;-81
2023/08/29 12:24:58;;;;;;;323.75;297.27;;;;;;;;;;4976206;28;20237;-81
2023/08/29 12:27:25;;;;;;;748.33;703.97;;;;;;;;;;4994580;28;20306;-82
2023/08/29 12:29:51;;;;;;;832.17;777.30;;;;;;;;;;5002610;28;20273;-82
2023/08/29 12:32:24;;;;;;;911.25;856.88;;;;;;;;;;5008850;28;20345;-83
2023/08/29 12:34:50;;;;;;;514.88;479.15;;;;;;;;;;5000971;28;20250;-82
2023/08/29 12:37:17;;;;;;;873.10;820.88;;;;;;;;;;5004179;28;20227;-82
2023/08/29 12:39:45;;;;;;;721.05;673.13;;;;;;;;;;4994204;28;20242;-82
2023/08/29 12:42:12;;;;;;;837.60;787.47;;;;;;;;;;5008618;28;20226;-82
2023/08/29 12:44:38;;;;;;;653.40;609.70;;;;;;;;;;5003797;28;20223;-82
2023/08/29 12:47:05;;;;;;;238.98;223.52;;;;;;;;;;4990428;28;20230;-82
2023/08/29 12:49:32;;;;;;;158.95;147.15;;;;;;;;;;5002323;28;20340;-81
2023/08/29 12:51:59;;;;;;;144.95;134.68;;;;;;;;;;4983257;28;20239;-81
2023/08/29 12:54:25;;;;;;;100.80;92.70;;;;;;;;;;5010075;28;20228;-82
2023/08/29 12:56:52;;;;;;;216.00;198.68;;;;;;;;;;4998322;28;20315;-81
2023/08/29 12:59:18;;;;;;;108.00;100.13;;;;;;;;;;5005163;28;20237;-81
2023/08/29 13:01:45;;;;;;;69.63;33.95;;;;;;;;;;4973805;28;20242;-81
2023/08/29 13:04:13;;;;;;;208.27;194.40;;;;;;;;;;4969169;28;20235;-80
2023/08/29 13:06:40;;;;;;;247.35;227.40;;;;;;;;;;4976059;28;20238;-81
2023/08/29 13:09:07;;;;;;;376.52;352.88;;;;;;;;;;5002846;28;20223;-82
2023/08/29 13:11:33;;;;;;;296.08;273.40;;;;;;;;;;4994007;28;20249;-80
2023/08/29 13:14:00;;;;;;;423.02;393.63;;;;;;;;;;4981083;28;20242;-81
2023/08/29 13:16:30;;;;;;;331.08;307.50;;;;;;;;;;4987438;28;20254;-81
2023/08/29 13:18:57;;;;;;;340.95;316.85;;;;;;;;;;4977355;28;20605;-81
2023/08/29 13:21:24;;;;;;;361.73;337.55;;;;;;;;;;4988563;28;20733;-82
2023/08/29 13:23:51;;;;;;;85.93;46.33;;;;;;;;;;4979713;28;20315;-83
2023/08/29 13:26:18;;;;;;;163.15;150.70;;;;;;;;;;5004002;28;20239;-82
2023/08/29 13:28:45;;;;;;;72.78;13.15;;;;;;;;;;5000299;28;20234;-84
2023/08/29 13:31:15;;;;;;;20.98;4.20;;;;;;;;;;5003117;28;20223;-83
2023/08/29 13:33:42;;;;;;;87.15;14.50;;;;;;;;;;4989424;28;20242;-83
2023/08/29 13:36:09;;;;;;;25.05;4.95;;;;;;;;;;5003512;28;20274;-82
2023/08/29 13:38:36;;;;;;;46.67;8.02;;;;;;;;;;4988530;28;20223;-82
2023/08/29 13:41:02;;;;;;;24.83;5.05;;;;;;;;;;5008945;28;20230;-82
2023/08/29 13:43:30;;;;;;;29.02;6.28;;;;;;;;;;4998110;28;20234;-82
2023/08/29 13:45:56;;;;;;;33.10;7.03;;;;;;;;;;4987379;28;20250;-82
2023/08/29 13:48:23;;;;;;;41.65;24.20;;;;;;;;;;4978722;28;20219;-83
2023/08/29 13:50:52;;;;;;;74.25;16.52;;;;;;;;;;4999828;28;20303;-83
2023/08/29 13:53:19;;;;;;;93.03;85.22;;;;;;;;;;5007321;28;20241;-81
2023/08/29 13:55:49;;;;;;;104.75;44.35;;;;;;;;;;4974802;28;20240;-83
2023/08/29 13:58:15;;;;;;;132.50;121.72;;;;;;;;;;5006007;28;20290;-83